Time;durP1;ratioP1;P1;durP2;ratioP2;P2;SDS_P1;SDS_P2;PMS_P1;PMS_P2;Temp;Humidity;BMP_temperature;BMP_pressure;BME280_temperature;BME280_humidity;BME280_pressure;Samples;Min_cycle;Max_cycle;Signal;HPM_P1;HPM_P2
2022/03/29 00:02:02;;;;;;;35.90;21.27;;;;;;;;;;6236379;23;20019;-87
2022/03/29 00:04:28;;;;;;;38.72;21.75;;;;;;;;;;6236350;23;20050;-85
2022/03/29 00:06:55;;;;;;;31.58;20.52;;;;;;;;;;6235689;23;20023;-87
2022/03/29 00:09:21;;;;;;;34.03;21.92;;;;;;;;;;6237435;23;20355;-86
2022/03/29 00:11:47;;;;;;;36.50;22.75;;;;;;;;;;6235344;23;20016;-88
2022/03/29 00:14:13;;;;;;;36.25;21.13;;;;;;;;;;6237470;23;20031;-87
2022/03/29 00:16:40;;;;;;;40.90;20.65;;;;;;;;;;6257671;22;20020;-87
2022/03/29 00:19:07;;;;;;;36.95;21.92;;;;;;;;;;6193644;23;20027;-86
2022/03/29 00:21:33;;;;;;;36.55;20.92;;;;;;;;;;6249461;22;20031;-85
2022/03/29 00:23:59;;;;;;;33.40;22.05;;;;;;;;;;6251912;23;20008;-86
2022/03/29 00:26:25;;;;;;;31.05;21.15;;;;;;;;;;6240273;23;20020;-84
2022/03/29 00:28:51;;;;;;;35.05;22.13;;;;;;;;;;6235630;23;20030;-85
2022/03/29 00:31:19;;;;;;;35.58;22.15;;;;;;;;;;6235765;23;20432;-84
2022/03/29 00:33:46;;;;;;;33.03;21.80;;;;;;;;;;6235609;23;20026;-85
2022/03/29 00:36:13;;;;;;;35.30;23.20;;;;;;;;;;6233579;23;20016;-85
2022/03/29 00:38:42;;;;;;;35.83;22.65;;;;;;;;;;6234243;23;20095;-85
2022/03/29 00:41:08;;;;;;;41.15;23.42;;;;;;;;;;6235426;23;20099;-85
2022/03/29 00:43:35;;;;;;;40.28;24.08;;;;;;;;;;6234230;23;20020;-84
2022/03/29 00:46:01;;;;;;;37.83;24.15;;;;;;;;;;6234709;23;20023;-84
2022/03/29 00:48:27;;;;;;;39.67;24.15;;;;;;;;;;6181142;23;20034;-86
2022/03/29 00:50:54;;;;;;;39.80;23.80;;;;;;;;;;6233414;23;20031;-85
2022/03/29 00:53:24;;;;;;;41.97;24.08;;;;;;;;;;6257831;22;20126;-85
2022/03/29 00:55:50;;;;;;;42.10;25.02;;;;;;;;;;6234218;23;20047;-84
2022/03/29 00:58:17;;;;;;;43.92;24.90;;;;;;;;;;6190914;23;20080;-86
2022/03/29 01:00:44;;;;;;;41.38;24.70;;;;;;;;;;6234325;23;20457;-85
2022/03/29 01:03:11;;;;;;;45.15;27.13;;;;;;;;;;6237705;23;20160;-85
2022/03/29 01:05:37;;;;;;;40.08;25.27;;;;;;;;;;6234093;23;20020;-85
2022/03/29 01:08:03;;;;;;;42.45;24.65;;;;;;;;;;6235430;23;20103;-86
2022/03/29 01:10:29;;;;;;;40.30;25.42;;;;;;;;;;6257479;22;20035;-85
2022/03/29 01:12:56;;;;;;;46.58;24.02;;;;;;;;;;6235261;23;20047;-87
2022/03/29 01:15:26;;;;;;;42.08;25.23;;;;;;;;;;6234489;23;20051;-84
2022/03/29 01:17:53;;;;;;;39.25;25.05;;;;;;;;;;6235441;23;20504;-84
2022/03/29 01:20:35;;;;;;;41.30;24.23;;;;;;;;;;6233402;23;20526;-86
2022/03/29 01:23:02;;;;;;;39.78;25.00;;;;;;;;;;6236835;23;20020;-85
2022/03/29 01:25:33;;;;;;;37.85;22.85;;;;;;;;;;6237013;23;20016;-84
2022/03/29 01:28:18;;;;;;;44.17;24.65;;;;;;;;;;6259957;22;20031;-86
2022/03/29 01:30:44;;;;;;;37.95;23.08;;;;;;;;;;6236470;23;20158;-84
2022/03/29 01:33:23;;;;;;;43.20;23.00;;;;;;;;;;6236503;23;20032;-84
2022/03/29 01:35:49;;;;;;;36.35;23.48;;;;;;;;;;6236078;23;20024;-86
2022/03/29 01:38:15;;;;;;;40.42;23.92;;;;;;;;;;6259593;22;20099;-86
2022/03/29 01:40:41;;;;;;;42.92;24.52;;;;;;;;;;6186739;23;20020;-85
2022/03/29 01:43:07;;;;;;;40.00;23.90;;;;;;;;;;6236242;23;20020;-85
2022/03/29 01:45:33;;;;;;;40.67;24.65;;;;;;;;;;6261910;22;20042;-84
2022/03/29 01:48:00;;;;;;;43.72;24.88;;;;;;;;;;6258579;22;20425;-85
2022/03/29 01:50:30;;;;;;;43.15;25.05;;;;;;;;;;6260072;22;20020;-84
2022/03/29 01:52:56;;;;;;;47.28;25.02;;;;;;;;;;6206278;23;20028;-85
2022/03/29 01:55:57;;;;;;;42.97;25.02;;;7.30;99.90;;;;;;6206678;23;20440;-84
2022/03/29 01:58:27;;;;;;;42.95;24.77;;;;;;;;;;6180238;23;20017;-85
2022/03/29 02:00:53;;;;;;;42.33;24.75;;;;;;;;;;6205107;23;20024;-84
2022/03/29 02:03:19;;;;;;;45.60;25.92;;;;;;;;;;6181250;23;20023;-84
2022/03/29 02:05:46;;;;;;;41.00;24.98;;;;;;;;;;6211015;23;20282;-84
2022/03/29 02:08:22;;;;;;;45.72;25.30;;;;;;;;;;6208392;23;20074;-84
2022/03/29 02:10:49;;;;;;;44.75;25.23;;;;;;;;;;6205279;23;20452;-84
2022/03/29 02:13:16;;;;;;;44.30;24.58;;;;;;;;;;6208772;23;20020;-83
2022/03/29 02:15:42;;;;;;;46.50;24.00;;;;;;;;;;6206424;23;20029;-85
2022/03/29 02:18:15;;;;;;;41.72;24.60;;;;;;;;;;6208860;23;20067;-85
2022/03/29 02:20:43;;;;;;;42.95;23.88;;;;;;;;;;6208712;23;20087;-84
2022/03/29 02:23:15;;;;;;;38.15;24.45;;;;;;;;;;6216288;23;20492;-85
2022/03/29 02:25:42;;;;;;;45.97;24.33;;;;;;;;;;6205712;23;20087;-85
2022/03/29 02:28:08;;;;;;;39.40;24.40;;;;;;;;;;6206623;23;20021;-84
2022/03/29 02:30:41;;;;;;;44.60;23.90;;;;;;;;;;6209027;23;20012;-85
2022/03/29 02:33:08;;;;;;;43.70;24.45;;;;;;;;;;6205523;23;20020;-85
2022/03/29 02:35:39;;;;;;;38.03;22.52;;;;;;;;;;6208947;23;20024;-85
2022/03/29 02:38:06;;;;;;;39.00;22.48;;;;;;;;;;6188010;23;20020;-85
2022/03/29 02:40:32;;;;;;;47.47;23.45;;;;;;;;;;6215584;23;20106;-84
2022/03/29 02:43:00;;;;;;;40.67;23.90;;;;;;;;;;6191210;23;20021;-84
2022/03/29 02:45:27;;;;;;;35.13;22.48;;;;;;;;;;6185391;23;20024;-84
2022/03/29 02:47:54;;;;;;;43.58;22.38;;;;;;;;;;6206932;23;20028;-86
2022/03/29 02:50:21;;;;;;;39.38;23.48;;;;;;;;;;6179737;23;20016;-86
2022/03/29 02:56:02;;;;;;;40.58;21.70;;;;;;;;;;6234563;23;20102;-86
2022/03/29 02:58:28;;;;;;;46.28;23.33;;;;;;;;;;6240179;23;20499;-86
2022/03/29 03:00:57;;;;;;;41.83;22.85;;;;;;;;;;6251567;22;20400;-84
2022/03/29 03:03:24;;;;;;;40.00;23.40;;;;;;;;;;6245768;23;20027;-86
2022/03/29 03:05:50;;;;;;;42.40;22.90;;;;;;;;;;6247071;23;20012;-86
2022/03/29 03:08:16;;;;;;;48.88;23.58;;;;;;;;;;6261836;22;20020;-85
2022/03/29 03:10:42;;;;;;;45.00;23.02;;;;;;;;;;6231531;23;20047;-85
2022/03/29 03:13:08;;;;;;;47.47;24.83;;;;;;;;;;6234366;23;20028;-86
2022/03/29 03:15:34;;;;;;;44.92;24.52;;;;;;;;;;6235270;23;20020;-86
2022/03/29 03:18:01;;;;;;;47.53;24.38;;;;;;;;;;6230834;23;20012;-86
2022/03/29 03:20:29;;;;;;;40.65;23.60;;;;;;;;;;6234545;23;20013;-85
2022/03/29 03:22:55;;;;;;;46.47;25.05;;;;;;;;;;6237813;23;20494;-85
2022/03/29 03:25:22;;;;;;;39.53;24.33;;;;;;;;;;6241639;23;20016;-86
2022/03/29 03:28:23;;;;;;;46.53;24.17;;;;;;;;;;6266713;22;20329;-87
2022/03/29 03:30:49;;;;;;;43.80;24.27;;;;;;;;;;6235934;22;20459;-86
2022/03/29 03:33:31;;;;;;;49.03;25.48;;;;;;;;;;6235293;23;20039;-85
2022/03/29 03:36:04;;;;;;;47.33;25.73;;;;;;;;;;6232211;23;20442;-84
2022/03/29 03:38:30;;;;;;;46.97;24.57;;;;;;;;;;6231843;23;20024;-85
2022/03/29 03:40:56;;;;;;;49.88;27.65;;;;;;;;;;6232967;23;20016;-85
2022/03/29 03:43:22;;;;;;;46.38;24.92;;;;;;;;;;6235201;23;20452;-85
2022/03/29 03:45:48;;;;;;;44.92;25.58;;;;;;;;;;6233347;23;20024;-86
2022/03/29 03:48:14;;;;;;;50.45;26.80;;;;;;;;;;6257283;22;20020;-84
2022/03/29 03:50:40;;;;;;;44.72;27.10;;;;;;;;;;6232958;23;20020;-86
2022/03/29 03:53:06;;;;;;;52.40;26.48;;;;;;;;;;6255146;22;20028;-85
2022/03/29 03:55:33;;;;;;;49.03;24.75;;;;;;;;;;6209199;23;20016;-86
2022/03/29 03:58:21;;;;;;;42.95;25.00;;;7.20;99.90;;;;;;6236228;23;20031;-85
2022/03/29 04:00:47;;;;;;;53.83;25.52;;;;;;;;;;6235557;23;20082;-85
2022/03/29 04:03:14;;;;;;;46.33;25.40;;;;;;;;;;6233170;23;20144;-85
2022/03/29 04:05:40;;;;;;;43.38;26.38;;;;;;;;;;6233179;23;20024;-85
2022/03/29 04:08:06;;;;;;;49.67;25.85;;;;;;;;;;6209819;23;20028;-85
2022/03/29 04:10:33;;;;;;;42.35;24.75;;;;;;;;;;6233075;23;20073;-87
2022/03/29 04:13:19;;;;;;;49.53;25.35;;;;;;;;;;6235805;23;20016;-85
2022/03/29 04:15:46;;;;;;;47.85;25.85;;;;;;;;;;6235036;23;20429;-84
2022/03/29 04:18:12;;;;;;;47.30;26.42;;;;;;;;;;6233618;23;20456;-84
2022/03/29 04:20:38;;;;;;;52.15;27.15;;;;;;;;;;6206994;23;20023;-83
2022/03/29 04:23:04;;;;;;;44.95;27.38;;;;;;;;;;6156877;23;20051;-84
2022/03/29 04:25:33;;;;;;;50.47;25.73;;;;;;;;;;6231728;23;20349;-85
2022/03/29 04:27:59;;;;;;;45.58;25.67;;;;;;;;;;6231898;23;20042;-84
2022/03/29 04:30:37;;;;;;;54.38;27.30;;;;;;;;;;6235473;23;20043;-85
2022/03/29 04:33:03;;;;;;;44.80;26.33;;;;;;;;;;6206453;23;20082;-85
2022/03/29 04:35:44;;;;;;;46.13;25.45;;;;;;;;;;6117139;23;20020;-85
2022/03/29 04:38:10;;;;;;;46.83;25.02;;;;;;;;;;6139814;23;20021;-85
2022/03/29 04:40:36;;;;;;;43.47;25.15;;;;;;;;;;6140584;23;20028;-84
2022/03/29 04:43:02;;;;;;;44.08;25.17;;;;;;;;;;6209861;23;20043;-85
2022/03/29 04:45:28;;;;;;;48.28;26.40;;;;;;;;;;6257397;22;20031;-85
2022/03/29 04:47:54;;;;;;;48.40;26.40;;;;;;;;;;6234598;23;20039;-85
2022/03/29 04:50:26;;;;;;;43.20;25.33;;;;;;;;;;6230913;23;20027;-85
2022/03/29 04:52:52;;;;;;;45.88;25.35;;;;;;;;;;6237949;23;20020;-86
2022/03/29 04:55:19;;;;;;;49.20;26.60;;;;;;;;;;6240635;23;20349;-85
2022/03/29 04:57:54;;;;;;;47.78;26.20;;;;;;;;;;6246528;23;20415;-85
2022/03/29 05:00:21;;;;;;;47.20;25.95;;;;;;;;;;6240025;23;20058;-85
2022/03/29 05:02:56;;;;;;;50.75;25.83;;;;;;;;;;6234111;23;20030;-85
2022/03/29 05:05:22;;;;;;;44.20;25.17;;;;;;;;;;6245491;23;20024;-85
2022/03/29 05:07:48;;;;;;;47.58;25.30;;;;;;;;;;6260897;22;20360;-85
2022/03/29 05:10:14;;;;;;;46.33;25.90;;;;;;;;;;6237470;23;20524;-85
2022/03/29 05:12:47;;;;;;;48.25;24.73;;;;;;;;;;6229394;23;20020;-86
2022/03/29 05:15:15;;;;;;;49.05;26.50;;;;;;;;;;6262104;22;20060;-88
2022/03/29 05:17:53;;;;;;;46.63;26.27;;;;;;;;;;6257304;22;20106;-85
2022/03/29 05:20:19;;;;;;;44.30;25.83;;;;;;;;;;6235116;23;20099;-85
2022/03/29 05:22:50;;;;;;;53.35;27.42;;;;;;;;;;6235417;23;20098;-85
2022/03/29 05:25:18;;;;;;;52.13;27.38;;;;;;;;;;6237276;23;20059;-88
2022/03/29 05:27:44;;;;;;;49.35;26.50;;;;;;;;;;6234615;23;20623;-86
2022/03/29 05:30:11;;;;;;;49.65;27.92;;;;;;;;;;6236751;23;20046;-88
2022/03/29 05:32:43;;;;;;;49.50;27.80;;;;;;;;;;6237977;23;20578;-86
2022/03/29 05:35:11;;;;;;;47.78;27.30;;;;;;;;;;6235636;23;20020;-85
2022/03/29 05:37:37;;;;;;;49.67;28.17;;;;;;;;;;6236418;23;20020;-85
2022/03/29 05:40:04;;;;;;;53.50;27.73;;;;;;;;;;6257886;22;20027;-86
2022/03/29 05:42:38;;;;;;;57.00;29.45;;;;;;;;;;6234843;23;20024;-86
2022/03/29 05:45:05;;;;;;;49.65;28.75;;;;;;;;;;6239118;23;20026;-86
2022/03/29 05:50:16;;;;;;;50.13;30.60;;;;;;;;;;6252923;23;20388;-87
2022/03/29 05:52:42;;;;;;;48.50;28.00;;;;;;;;;;6252629;23;20044;-86
2022/03/29 05:55:09;;;;;;;46.65;29.05;;;;;;;;;;6200705;23;20016;-86
2022/03/29 05:57:35;;;;;;;56.83;29.50;;;;;;;;;;6254450;23;20020;-85
2022/03/29 06:00:01;;;;;;;59.22;30.15;;;;;;;;;;6252973;23;20457;-85
2022/03/29 06:02:27;;;;;;;51.83;29.20;;;;;;;;;;6277127;22;20166;-85
2022/03/29 06:04:54;;;;;;;52.08;29.17;;;;;;;;;;6252233;23;20027;-85
2022/03/29 06:07:20;;;;;;;55.30;29.90;;;;;;;;;;6252214;22;20063;-84
2022/03/29 06:09:46;;;;;;;49.92;29.85;;;;;;;;;;6254021;23;20020;-86
2022/03/29 06:12:12;;;;;;;54.85;29.08;;;;;;;;;;6234471;23;20341;-86
2022/03/29 06:14:39;;;;;;;55.35;29.33;;;;;;;;;;6261954;22;20368;-85
2022/03/29 06:17:06;;;;;;;54.38;29.98;;;;;;;;;;6236256;23;20452;-85
2022/03/29 06:19:32;;;;;;;53.28;29.25;;;;;;;;;;6236544;23;20016;-84
2022/03/29 06:21:58;;;;;;;54.33;30.83;;;;;;;;;;6235028;23;20024;-85
2022/03/29 06:24:26;;;;;;;53.13;28.40;;;;;;;;;;6260960;22;20013;-87
2022/03/29 06:26:52;;;;;;;53.92;30.95;;;;;;;;;;6234316;23;20030;-86
2022/03/29 06:29:18;;;;;;;52.15;29.80;;;;;;;;;;6236044;23;20060;-87
2022/03/29 06:31:44;;;;;;;60.40;31.52;;;;;;;;;;6234189;23;20024;-88
2022/03/29 06:34:16;;;;;;;60.60;31.05;;;;;;;;;;6237547;23;20027;-87
2022/03/29 06:36:42;;;;;;;50.90;30.02;;;;;;;;;;6241143;23;20456;-85
2022/03/29 06:39:11;;;;;;;53.80;30.70;;;;;;;;;;6240140;23;20016;-85
2022/03/29 06:41:37;;;;;;;58.22;31.98;;;;;;;;;;6235550;23;20031;-85
2022/03/29 06:44:03;;;;;;;49.40;28.58;;;;;;;;;;6259138;22;20445;-85
2022/03/29 06:46:30;;;;;;;59.70;29.95;;;;;;;;;;6233480;23;20020;-85
2022/03/29 06:48:58;;;;;;;56.15;28.50;;;;;;;;;;6210350;23;20153;-85
2022/03/29 06:51:24;;;;;;;48.95;29.25;;;;;;;;;;6184895;23;20012;-85
2022/03/29 06:53:50;;;;;;;48.65;28.85;;;;;;;;;;6237022;23;20017;-85
2022/03/29 06:56:17;;;;;;;52.20;26.27;;;;;;;;;;6237026;23;20143;-84
2022/03/29 06:58:43;;;;;;;49.65;19.40;;;;;;;;;;6237855;23;20012;-84
2022/03/29 07:01:09;;;;;;;38.25;17.60;;;;;;;;;;6240857;23;20085;-84
2022/03/29 07:03:35;;;;;;;34.97;15.18;;;;;;;;;;6242915;23;20039;-83
2022/03/29 07:06:03;;;;;;;34.10;15.77;;;;;;;;;;6243496;23;20020;-83
2022/03/29 07:08:30;;;;;;;42.70;14.77;;;;;;;;;;6249735;23;20356;-84
2022/03/29 07:13:41;;;;;;;28.65;13.98;;;;;;;;;;6249744;23;20016;-84
2022/03/29 07:16:09;;;;;;;30.50;14.02;;;;;;;;;;6240755;23;20209;-84
2022/03/29 07:18:35;;;;;;;41.38;13.80;;;;;;;;;;6239678;23;20101;-85
2022/03/29 07:21:04;;;;;;;35.45;14.43;;;;;;;;;;6235335;23;20047;-84
2022/03/29 07:23:30;;;;;;;33.83;14.02;;;;;;;;;;6236316;22;20019;-84
2022/03/29 07:25:57;;;;;;;38.45;15.00;;;;;;;;;;6260766;22;20078;-85
2022/03/29 07:28:23;;;;;;;33.38;14.52;;;;;;;;;;6236298;23;20059;-84
2022/03/29 07:30:51;;;;;;;36.13;14.07;;;;;;;;;;6235472;23;20024;-84
2022/03/29 07:33:17;;;;;;;30.23;14.00;;;;;;;;;;6235413;23;20020;-84
2022/03/29 07:35:44;;;;;;;29.35;13.10;;;;;;;;;;6233992;23;20054;-84
2022/03/29 07:38:11;;;;;;;27.88;12.98;;;;;;;;;;6238347;23;20027;-84
2022/03/29 07:40:37;;;;;;;37.95;12.77;;;;;;;;;;6260071;22;20020;-84
2022/03/29 07:43:05;;;;;;;29.35;11.90;;;;;;;;;;6238525;23;20016;-85
2022/03/29 07:45:31;;;;;;;35.10;10.50;;;;;;;;;;6237732;23;20027;-84
2022/03/29 07:47:58;;;;;;;27.38;9.85;;;;;;;;;;6234959;23;20024;-85
2022/03/29 07:50:27;;;;;;;33.55;10.40;;;;;;;;;;6209480;23;20061;-85
2022/03/29 07:52:54;;;;;;;37.03;9.30;;;;;;;;;;6261023;22;20024;-84
2022/03/29 07:55:20;;;;;;;30.10;9.00;;;;;;;;;;6235535;22;20388;-84
2022/03/29 07:57:46;;;;;;;33.47;9.70;;;;;;;;;;6236945;23;20020;-84
2022/03/29 08:00:32;;;;;;;36.60;10.00;;;;;;;;;;6233540;23;20016;-84
2022/03/29 08:02:59;;;;;;;36.15;10.25;;;;;;;;;;6231993;23;20020;-84
2022/03/29 08:05:26;;;;;;;33.97;12.05;;;;;;;;;;6234304;23;20012;-86
2022/03/29 08:07:52;;;;;;;32.65;10.68;;;;;;;;;;6258223;22;20019;-85
2022/03/29 08:10:18;;;;;;;35.83;9.68;;;;;;;;;;6236634;23;20020;-83
2022/03/29 08:12:44;;;;;;;30.60;9.45;;;;;;;;;;6182678;23;20408;-86
2022/03/29 08:15:11;;;;;;;25.60;9.82;;;;;;;;;;6234021;23;20012;-85
2022/03/29 08:17:37;;;;;;;32.28;10.48;;;;;;;;;;6234041;23;20020;-84
2022/03/29 08:20:05;;;;;;;32.03;10.05;;;;;;;;;;6237223;23;20012;-85
2022/03/29 08:22:32;;;;;;;27.13;9.20;;;;;;;;;;6247181;23;20051;-83
2022/03/29 08:24:58;;;;;;;34.42;10.25;;;;;;;;;;6244890;23;20020;-84
2022/03/29 08:27:25;;;;;;;29.67;9.10;;;;;;;;;;6246230;23;20085;-84
2022/03/29 08:29:51;;;;;;;28.63;9.25;;;;;;;;;;6247076;23;20020;-84
2022/03/29 08:32:23;;;;;;;23.35;8.32;;;;;;;;;;6246212;23;20023;-85
2022/03/29 08:34:49;;;;;;;20.23;7.95;;;;;;;;;;6244200;23;20026;-84
2022/03/29 08:37:24;;;;;;;28.77;8.05;;;;;;;;;;6239181;23;20058;-91
2022/03/29 08:39:50;;;;;;;27.98;7.85;;;;;;;;;;6233989;23;20024;-83
2022/03/29 08:42:20;;;;;;;29.90;8.73;;;;;;;;;;6183754;23;20040;-83
2022/03/29 08:44:46;;;;;;;25.92;8.90;;;;;;;;;;6183680;23;20031;-83
2022/03/29 08:47:15;;;;;;;26.02;9.05;;;;;;;;;;6235015;23;20024;-84
2022/03/29 08:49:42;;;;;;;30.45;9.00;;;;;;;;;;6234491;23;20329;-83
2022/03/29 08:52:08;;;;;;;28.02;8.65;;;;;;;;;;6236818;23;20016;-84
2022/03/29 08:54:35;;;;;;;25.70;8.32;;;;;;;;;;6236196;23;20024;-84
2022/03/29 08:57:01;;;;;;;22.33;8.82;;;;;;;;;;6235578;23;20013;-84
2022/03/29 08:59:28;;;;;;;27.02;7.40;;;;;;;;;;6233335;23;20024;-84
2022/03/29 09:01:56;;;;;;;26.83;7.95;;;;;;;;;;6236311;23;20016;-82
2022/03/29 09:04:24;;;;;;;23.58;8.25;;;;;;;;;;6237406;23;20024;-84
2022/03/29 09:06:50;;;;;;;28.10;8.52;;;;;;;;;;6236051;23;20400;-84
2022/03/29 09:09:35;;;;;;;24.08;8.57;;;;;;;;;;6234295;23;20028;-87
2022/03/29 09:12:13;;;;;;;26.02;7.32;;;;;;;;;;6236073;23;20055;-82
2022/03/29 09:14:57;;;;;;;25.80;6.68;;;;;;;;;;6234029;23;20027;-82
2022/03/29 09:17:23;;;;;;;;;;;;;;;;;;6235029;23;20074;-81
2022/03/29 09:19:51;;;;;;;24.33;7.05;;;;;;;;;;6236927;23;20324;-86
2022/03/29 09:22:37;;;;;;;27.35;7.80;;;;;;;;;;6236527;23;20039;-82
2022/03/29 09:25:03;;;;;;;26.83;7.20;;;;;;;;;;6244110;23;20024;-82
2022/03/29 09:27:29;;;;;;;30.40;7.95;;;;;;;;;;6246269;23;20095;-82
2022/03/29 09:30:09;;;;;;;23.92;7.05;;;;;;;;;;6241940;23;20012;-81
2022/03/29 09:33:04;;;;;;;27.65;7.18;;;;;;;;;;6238906;23;20023;-82
2022/03/29 09:35:30;;;;;;;22.20;5.53;;;;;;;;;;6236636;23;20024;-80
2022/03/29 09:37:57;;;;;;;26.23;5.95;;;;;;;;;;6234136;23;20028;-83
2022/03/29 09:40:32;;;;;;;25.85;6.20;;;;;;;;;;6235516;23;20042;-83
2022/03/29 09:43:02;;;;;;;26.33;5.32;;;;;;;;;;6242789;22;20023;-83
2022/03/29 09:45:45;;;;;;;28.02;5.95;;;;;;;;;;6271038;22;20027;-83
2022/03/29 09:48:20;;;;;;;21.67;6.05;;;;;;;;;;6259228;22;20043;-82
2022/03/29 09:50:46;;;;;;;31.02;6.65;;;;;;;;;;6259818;22;20023;-84
2022/03/29 09:53:32;;;;;;;22.65;6.72;;;;;;;;;;6255495;22;20161;-83
2022/03/29 09:55:59;;;;;;;30.60;6.47;;;;;;;;;;6276483;22;20022;-85
2022/03/29 09:58:25;;;;;;;28.17;7.38;;;;;;;;;;6269089;22;20459;-84
2022/03/29 10:00:57;;;;;;;20.33;6.57;;;;;;;;;;6241411;22;20467;-84
2022/03/29 10:03:27;;;;;;;25.50;7.30;;;;;;;;;;6240917;22;20020;-84
2022/03/29 10:06:01;;;;;;;27.75;6.53;;;;;;;;;;6268634;22;20046;-82
2022/03/29 10:11:15;;;;;;;22.92;7.00;;;;;;;;;;6268806;22;20107;-82
2022/03/29 10:13:41;;;;;;;26.63;7.13;;;;;;;;;;6267958;22;20098;-83
2022/03/29 10:16:12;;;;;;;23.95;7.03;;;;;;;;;;6267862;22;20024;-83
2022/03/29 10:18:38;;;;;;;22.83;6.50;;;;;;;;;;6267757;22;20375;-83
2022/03/29 10:21:09;;;;;;;21.23;6.93;;;;;;;;;;6192961;22;20015;-84
2022/03/29 10:23:36;;;;;;;29.50;7.25;;;;;;;;;;6217680;22;20023;-84
2022/03/29 10:26:03;;;;;;;27.08;7.05;;;;;;;;;;6267907;22;20023;-84
2022/03/29 10:28:30;;;;;;;23.13;7.30;;;;;;;;;;6267945;22;20019;-83
2022/03/29 10:30:56;;;;;;;29.85;7.68;;;;;;;;;;6214714;22;20011;-81
2022/03/29 10:33:23;;;;;;;22.90;7.32;;;;;;;;;;6267464;22;20559;-82
2022/03/29 10:36:02;;;;;;;30.67;7.13;;;;;;;;;;6267398;22;20062;-82
2022/03/29 10:38:46;;;;;;;25.73;8.00;;;;;;;;;;6266485;22;20085;-84
2022/03/29 10:41:29;;;;;;;25.50;7.78;;;;;;;;;;6267796;22;20047;-83
2022/03/29 10:43:55;;;;;;;26.77;8.00;;;;;;;;;;6267677;22;20024;-84
2022/03/29 10:46:23;;;;;;;26.17;8.20;;;;;;;;;;6241670;22;20089;-83
2022/03/29 10:49:09;;;;;;;21.10;7.82;;;;;;;;;;6267569;22;20023;-82
2022/03/29 10:51:35;;;;;;;27.00;7.38;;;;;;;;;;6267677;22;20020;-82
2022/03/29 10:54:19;;;;;;;26.77;8.85;;;;;;;;;;6275257;22;20069;-81
2022/03/29 10:56:56;;;;;;;27.10;7.90;;;;;;;;;;6258041;22;20027;-85
2022/03/29 10:59:22;;;;;;;34.55;8.35;;;;;;;;;;6286509;22;20119;-84
2022/03/29 11:02:06;;;;;;;24.25;7.97;;;;;;;;;;6280564;22;20015;-85
2022/03/29 11:04:33;;;;;;;;;;;;;;;;;;6268247;22;20018;-85
2022/03/29 11:07:09;;;;;;;23.48;8.52;;;;;;;;;;6215151;22;19942;-87
2022/03/29 11:09:40;;;;;;;24.17;8.60;;;;;;;;;;6266203;22;20019;-88
2022/03/29 11:12:26;;;;;;;20.48;9.68;;;;;;;;;;6239532;22;20046;-87
2022/03/29 11:14:56;;;;;;;22.55;9.60;;;;;;;;;;6203371;22;20019;-88
2022/03/29 11:17:22;;;;;;;27.65;10.88;;;;;;;;;;6267910;22;20551;-87
2022/03/29 11:19:53;;;;;;;25.00;9.40;;;;;;;;;;6238914;22;20054;-86
2022/03/29 11:22:22;;;;;;;30.20;10.30;;;;;;;;;;6266182;22;20555;-88
2022/03/29 11:24:53;;;;;;;32.13;10.25;;;;;;;;;;6238287;22;20024;-88
2022/03/29 11:27:24;;;;;;;32.17;9.88;;;;;;;;;;6264574;22;20020;-87
2022/03/29 11:29:50;;;;;;;29.55;9.55;;;;;;;;;;6266673;22;20118;-86
2022/03/29 11:32:23;;;;;;;25.90;9.80;;;;;;;;;;6267156;22;20028;-86
2022/03/29 11:35:03;;;;;;;30.85;9.60;;;;;;;;;;6267547;22;20030;-89
2022/03/29 11:37:37;;;;;;;23.98;9.77;;;;;;;;;;6268082;22;20054;-87
2022/03/29 11:40:04;;;;;;;32.58;10.23;;;;;;;;;;6215019;22;20106;-87
2022/03/29 11:48:00;;;;;;;25.10;10.48;;;;;;;;;;6170452;23;20036;-89
2022/03/29 11:53:16;;;;;;;28.73;9.25;;;;;;;;;;6236776;23;20038;-88
2022/03/29 11:55:42;;;;;;;28.00;9.52;;;;;;;;;;6216200;22;20019;-88
2022/03/29 11:58:24;;;;;;;32.40;10.63;;;;;;;;;;6218194;22;20062;-87
2022/03/29 12:01:07;;;;;;;28.65;10.13;;;;;;;;;;6242099;22;20019;-87
2022/03/29 12:03:34;;;;;;;32.45;9.70;;;;;;;;;;6268468;22;20020;-87
2022/03/29 12:06:04;;;;;;;27.38;9.85;;;;;;;;;;6270781;22;20020;-87
2022/03/29 12:08:49;;;;;;;32.35;10.05;;;;;;;;;;6241375;22;20019;-89
2022/03/29 12:11:28;;;;;;;32.15;10.13;;;;;;;;;;6241963;22;20019;-88
2022/03/29 12:14:02;;;;;;;28.10;10.18;;;;;;;;;;6215786;22;20023;-87
2022/03/29 12:16:29;;;;;;;27.88;10.43;;;;;;;;;;6270085;22;20075;-85
2022/03/29 12:18:55;;;;;;;23.52;9.25;;;;;;;;;;6268851;22;20016;-88
2022/03/29 12:21:22;;;;;;;28.15;9.57;;;;;;;;;;6217981;22;20088;-87
2022/03/29 12:23:50;;;;;;;31.38;10.55;;;;;;;;;;6216016;22;20428;-85
2022/03/29 12:26:18;;;;;;;32.90;9.65;;;;;;;;;;6269525;22;20336;-87
2022/03/29 12:28:45;;;;;;;26.95;9.57;;;;;;;;;;6214588;22;20047;-88
2022/03/29 12:31:15;;;;;;;29.25;10.15;;;;;;;;;;6268862;22;20019;-87
2022/03/29 12:33:42;;;;;;;29.00;9.77;;;;;;;;;;6268143;22;20031;-87
2022/03/29 12:36:17;;;;;;;26.77;10.98;;;;;;;;;;6243111;22;20086;-88
2022/03/29 12:38:43;;;;;;;26.00;9.73;;;;;;;;;;6241521;22;20123;-89
2022/03/29 12:41:12;;;;;;;25.42;9.93;;;;;;;;;;6269398;22;20409;-86
2022/03/29 12:43:39;;;;;;;28.70;10.68;;;;;;;;;;6194082;22;20026;-87
2022/03/29 12:46:22;;;;;;;27.35;10.50;;;;;;;;;;6191400;22;20019;-89
2022/03/29 12:48:48;;;;;;;30.92;9.90;;;;;;;;;;6195238;22;20020;-90
2022/03/29 12:51:24;;;;;;;28.55;8.50;;;;;;;;;;6215762;22;20058;-89
2022/03/29 12:53:56;;;;;;;27.08;9.50;;;;;;;;;;6216771;22;20110;-90
2022/03/29 12:56:29;;;;;;;26.10;11.05;;;;;;;;;;6215382;22;20058;-88
2022/03/29 12:58:55;;;;;;;30.27;9.23;;;;;;;;;;6269147;22;20024;-89
2022/03/29 13:01:28;;;;;;;31.70;10.20;;;;;;;;;;6268502;22;20023;-89
2022/03/29 13:04:04;;;;;;;28.05;9.48;;;;;;;;;;6268153;22;20020;-90
2022/03/29 13:06:41;;;;;;;28.67;9.10;;;;;;;;;;6242895;22;20073;-87
2022/03/29 13:09:07;;;;;;;28.40;10.25;;;;;;;;;;6216466;22;20456;-89
2022/03/29 13:11:34;;;;;;;33.42;10.13;;;;;;;;;;6267336;22;20019;-89
2022/03/29 13:14:04;;;;;;;24.60;9.32;;;;;;;;;;6267835;22;20024;-88
2022/03/29 13:16:30;;;;;;;24.35;10.18;;;;;;;;;;6216362;22;20019;-87
2022/03/29 13:18:57;;;;;;;28.02;10.38;;;;;;;;;;6271123;22;20018;-89
2022/03/29 13:21:23;;;;;;;31.50;10.65;;;;;;;;;;6242378;22;20016;-90
2022/03/29 13:23:54;;;;;;;23.58;9.18;;;;;;;;;;6243770;22;20015;-89
2022/03/29 13:26:24;;;;;;;28.95;9.30;;;;;;;;;;6269089;22;20061;-89
2022/03/29 13:28:50;;;;;;;27.00;8.90;;;;;;;;;;6271042;22;20031;-86
2022/03/29 13:31:17;;;;;;;26.23;9.63;;;;;;;;;;6270768;22;20049;-88
2022/03/29 13:33:47;;;;;;;29.48;9.52;;;;;;;;;;6271310;22;20481;-88
2022/03/29 13:36:14;;;;;;;23.98;9.43;;;;;;;;;;6242659;22;20054;-86
2022/03/29 13:38:52;;;;;;;23.40;9.35;;;;;;;;;;6218965;22;20069;-87
2022/03/29 13:41:23;;;;;;;28.05;9.63;;;;;;;;;;6269917;22;20061;-86
2022/03/29 13:43:49;;;;;;;23.52;8.82;;;;;;;;;;6218547;22;20020;-88
2022/03/29 13:46:20;;;;;;;22.67;9.15;;;;;;;;;;6243570;22;20440;-85
2022/03/29 13:48:59;;;;;;;26.70;9.25;;;;;;;;;;6272020;22;20443;-87
2022/03/29 13:51:37;;;;;;;28.23;9.75;;;;;;;;;;6243239;22;20027;-88
2022/03/29 13:54:36;;;;;;;24.17;8.88;;;;;;;;;;6215573;22;20054;-87
2022/03/29 13:57:27;;;;;;;21.35;8.85;;;;;;;;;;6269603;22;20838;-87
2022/03/29 13:59:53;;;;;;;25.00;9.50;;;;;;;;;;6238816;22;20484;-86
2022/03/29 14:02:20;;;;;;;26.40;9.93;;;;;;;;;;6215357;22;20456;-88
2022/03/29 14:04:58;;;;;;;20.15;8.35;;;;;;;;;;6242379;22;20102;-88
2022/03/29 14:07:25;;;;;;;19.15;8.45;;;;;;;;;;6215660;22;20440;-87
2022/03/29 14:09:51;;;;;;;26.00;9.13;;;;;;;;;;6241253;22;20027;-89
2022/03/29 14:12:17;;;;;;;24.70;6.63;;;;;;;;;;6188007;22;20029;-86
2022/03/29 14:14:43;;;;;;;28.55;7.05;;;;;;;;;;6218523;22;20011;-87
2022/03/29 14:17:09;;;;;;;25.48;6.85;;;;;;;;;;6237809;22;20486;-87
2022/03/29 14:19:36;;;;;;;24.73;7.15;;;;;;;;;;6268725;22;20420;-87
2022/03/29 14:22:02;;;;;;;20.88;6.63;;;;;;;;;;6265276;22;20027;-86
2022/03/29 14:24:28;;;;;;;27.27;5.90;;;;;;;;;;6241475;22;20019;-87
2022/03/29 14:26:56;;;;;;;21.30;6.25;;;;;;;;;;6242766;22;20019;-85
2022/03/29 14:29:22;;;;;;;20.23;5.85;;;;;;;;;;6266097;22;20046;-87
2022/03/29 14:31:48;;;;;;;21.95;8.82;;;;;;;;;;6240742;22;20050;-85
2022/03/29 14:34:16;;;;;;;25.48;9.52;;;;;;;;;;6272615;22;20055;-88
2022/03/29 14:36:42;;;;;;;27.33;8.20;;;;;;;;;;6216056;22;20027;-85
2022/03/29 14:39:09;;;;;;;22.77;8.60;;;;;;;;;;6264557;22;20357;-85
2022/03/29 14:41:35;;;;;;;21.58;7.90;;;;;;;;;;6215822;22;20015;-87
2022/03/29 14:44:01;;;;;;;22.85;8.65;;;;;;;;;;6188898;22;20099;-86
2022/03/29 14:46:48;;;;;;;23.67;8.43;;;;;;;;;;6228417;22;20039;-85
2022/03/29 14:49:29;;;;;;;23.75;7.70;;;;;;;;;;6283557;22;20066;-86
2022/03/29 14:52:01;;;;;;;23.45;8.43;;;;;;;;;;6257380;22;20012;-84
2022/03/29 14:54:28;;;;;;;32.75;8.20;;;;;;;;;;6274205;22;20510;-87